createdAt,value
2018-08-19T00:03:26.344Z,3.37
2018-08-19T00:08:29.333Z,3.43
2018-08-19T00:13:32.389Z,3.40
2018-08-19T00:18:35.442Z,4.60
2018-08-19T00:23:43.949Z,3.90
2018-08-19T00:28:46.950Z,3.80
2018-08-19T00:33:49.973Z,3.80
2018-08-19T00:38:53.387Z,3.93
2018-08-19T00:43:56.435Z,4.03
2018-08-19T00:49:00.158Z,3.47
2018-08-19T00:54:03.137Z,4.00
2018-08-19T00:59:08.418Z,3.60
2018-08-19T01:04:11.459Z,3.77
2018-08-19T01:09:14.485Z,3.60
2018-08-19T01:14:17.469Z,3.77
2018-08-19T01:19:20.563Z,3.67
2018-08-19T01:24:23.609Z,3.73
2018-08-19T01:29:34.634Z,3.87
2018-08-19T01:34:37.880Z,4.03
2018-08-19T01:39:40.897Z,3.70
2018-08-19T01:44:43.945Z,4.43
2018-08-19T01:49:46.965Z,4.13
2018-08-19T01:54:49.989Z,3.83
2018-08-19T01:59:54.442Z,3.90
2018-08-19T02:04:57.561Z,3.77
2018-08-19T02:10:02.645Z,4.60
2018-08-19T02:15:06.296Z,3.80
2018-08-19T02:20:09.345Z,3.97
2018-08-19T02:25:12.361Z,3.97
2018-08-19T02:30:15.457Z,3.90
2018-08-19T02:35:18.453Z,3.60
2018-08-19T02:40:26.904Z,4.10
2018-08-19T02:45:29.952Z,4.27
2018-08-19T02:50:32.953Z,4.57
2018-08-19T02:55:35.947Z,4.87
2018-08-19T03:00:38.925Z,4.30
2018-08-19T03:05:46.218Z,4.57
2018-08-19T03:10:49.475Z,4.50
2018-08-19T03:15:52.741Z,4.00
2018-08-19T03:20:55.898Z,4.10
2018-08-19T03:25:58.923Z,4.00
2018-08-19T03:31:02.693Z,4.57
2018-08-19T03:36:05.809Z,3.97
2018-08-19T03:41:08.782Z,3.87
2018-08-19T03:46:17.249Z,4.37
2018-08-19T03:51:20.306Z,3.83
2018-08-19T03:56:26.745Z,3.87
2018-08-19T04:01:39.173Z,4.13
2018-08-19T04:06:42.497Z,3.93
2018-08-19T04:11:55.693Z,3.97
2018-08-19T04:17:00.217Z,4.10
2018-08-19T04:22:04.473Z,3.87
2018-08-19T04:27:10.765Z,3.80
2018-08-19T04:32:24.273Z,3.87
2018-08-19T04:37:27.551Z,3.87
2018-08-19T04:42:30.547Z,4.13
2018-08-19T04:47:33.606Z,4.10
2018-08-19T04:52:36.608Z,3.90
2018-08-19T04:57:39.614Z,4.33
2018-08-19T05:02:42.737Z,4.20
2018-08-19T05:07:45.718Z,3.80
2018-08-19T05:12:48.714Z,4.73
2018-08-19T05:17:52.288Z,4.80
2018-08-19T05:22:55.429Z,4.90
2018-08-19T05:28:03.922Z,5.10
2018-08-19T05:33:06.876Z,4.70
2018-08-19T05:38:09.973Z,5.27
2018-08-19T05:43:12.936Z,5.50
2018-08-19T05:48:15.926Z,4.83
2018-08-19T05:53:19.077Z,5.33
2018-08-19T05:58:22.213Z,5.30
2018-08-19T06:03:25.262Z,5.40
2018-08-19T06:08:28.403Z,5.20
2018-08-19T06:13:31.385Z,4.87
2018-08-19T06:18:34.399Z,5.13
2018-08-19T06:23:37.422Z,4.80
2018-08-19T06:28:40.422Z,5.03
2018-08-19T06:33:43.562Z,4.80
2018-08-19T06:38:46.577Z,4.80
2018-08-19T06:43:49.610Z,4.50
2018-08-19T06:48:52.841Z,4.87
2018-08-19T06:53:55.879Z,4.53
2018-08-19T06:58:58.880Z,4.20
2018-08-19T07:04:01.986Z,4.30
2018-08-19T07:09:06.576Z,3.63
2018-08-19T07:14:10.428Z,3.50
2018-08-19T07:19:13.468Z,3.60
2018-08-19T07:24:16.469Z,3.00
2018-08-19T07:29:19.498Z,2.90
2018-08-19T07:34:22.589Z,2.53
2018-08-19T07:39:26.170Z,2.67
2018-08-19T07:44:29.198Z,2.77
2018-08-19T07:49:32.319Z,2.50
2018-08-19T07:54:35.706Z,2.50
2018-08-19T07:59:39.537Z,2.37
2018-08-19T08:04:43.430Z,2.30
2018-08-19T08:09:46.434Z,2.40
2018-08-19T08:14:53.537Z,2.17
2018-08-19T08:20:04.095Z,2.13
2018-08-19T08:25:10.158Z,2.50
2018-08-19T08:30:13.313Z,2.40
2018-08-19T08:35:16.322Z,2.40
2018-08-19T08:40:19.328Z,2.10
2018-08-19T08:45:27.697Z,2.10
2018-08-19T08:50:30.689Z,2.43
2018-08-19T08:55:33.694Z,2.43
2018-08-19T09:00:36.689Z,2.20
2018-08-19T09:05:39.698Z,1.77
2018-08-19T09:10:43.244Z,1.73
2018-08-19T09:15:46.299Z,1.70
2018-08-19T09:20:49.307Z,1.73
2018-08-19T09:25:52.644Z,2.07
2018-08-19T09:30:55.713Z,1.80
2018-08-19T09:35:58.825Z,2.00
2018-08-19T09:41:01.855Z,2.07
2018-08-19T09:46:04.868Z,1.87
2018-08-19T09:51:13.400Z,1.93
2018-08-19T09:56:20.116Z,1.87
2018-08-19T10:01:28.729Z,1.93
2018-08-19T10:06:31.652Z,1.90
2018-08-19T10:11:34.654Z,2.07
2018-08-19T10:16:42.477Z,1.80
2018-08-19T10:21:45.573Z,1.80
2018-08-19T10:26:48.553Z,1.83
2018-08-19T10:31:55.781Z,1.70
2018-08-19T10:36:59.449Z,2.33
2018-08-19T10:42:16.521Z,1.60
2018-08-19T10:47:20.580Z,1.87
2018-08-19T10:52:29.880Z,1.70
2018-08-19T10:57:32.849Z,1.93
2018-08-19T11:02:35.809Z,1.90
2018-08-19T11:07:38.786Z,1.60
2018-08-19T11:12:41.771Z,1.93
2018-08-19T11:17:44.759Z,1.67
2018-08-19T11:22:47.736Z,1.83
2018-08-19T11:27:50.717Z,1.60
2018-08-19T11:32:53.814Z,1.80
2018-08-19T11:37:56.862Z,1.50
2018-08-19T11:42:59.832Z,1.53
2018-08-19T11:48:02.816Z,1.60
2018-08-19T11:53:06.010Z,1.70
2018-08-19T11:58:09.485Z,1.87
2018-08-19T12:03:12.756Z,1.60
2018-08-19T12:08:16.050Z,2.00
2018-08-19T12:13:19.481Z,1.80
2018-08-19T12:18:23.210Z,1.90
2018-08-19T12:23:26.652Z,1.67
2018-08-19T12:28:30.140Z,1.83
2018-08-19T12:33:33.130Z,1.63
2018-08-19T12:38:36.118Z,1.33
2018-08-19T12:43:40.794Z,1.37
2018-08-19T12:48:44.190Z,1.37
2018-08-19T12:53:47.157Z,1.50
2018-08-19T12:58:50.138Z,1.63
2018-08-19T13:03:53.244Z,1.40
2018-08-19T13:08:56.377Z,1.53
2018-08-19T13:13:59.521Z,1.20
2018-08-19T13:19:02.774Z,1.33
2018-08-19T13:24:06.056Z,1.47
2018-08-19T13:29:09.026Z,1.33
2018-08-19T13:34:11.989Z,1.73
2018-08-19T13:39:14.986Z,1.50
2018-08-19T13:44:17.966Z,1.70
2018-08-19T13:49:23.460Z,1.60
2018-08-19T13:54:26.457Z,1.60
2018-08-19T13:59:29.489Z,1.80
2018-08-19T14:04:32.466Z,1.60
2018-08-19T14:09:35.425Z,1.53
2018-08-19T14:14:38.399Z,1.40
2018-08-19T14:19:41.402Z,1.60
2018-08-19T14:24:44.461Z,1.73
2018-08-19T14:29:47.437Z,1.63
2018-08-19T14:34:50.414Z,1.80
2018-08-19T14:39:53.436Z,1.90
2018-08-19T14:44:57.471Z,1.30
2018-08-19T14:50:00.509Z,1.60
2018-08-19T14:55:03.778Z,1.43
2018-08-19T15:00:08.535Z,1.60
2018-08-19T15:05:13.534Z,1.83
2018-08-19T15:10:17.738Z,1.73
2018-08-19T15:15:20.855Z,1.80
2018-08-19T15:20:29.334Z,1.60
2018-08-19T15:25:32.381Z,1.87
2018-08-19T15:30:35.889Z,1.70
2018-08-19T15:35:38.916Z,2.07
2018-08-19T15:40:45.713Z,1.53
2018-08-19T15:45:48.700Z,1.97
2018-08-19T15:50:52.006Z,1.80
2018-08-19T15:55:55.042Z,2.10
2018-08-19T16:00:58.373Z,1.90
2018-08-19T16:06:01.366Z,1.60
2018-08-19T16:11:04.349Z,2.00
2018-08-19T16:16:10.223Z,2.00
2018-08-19T16:21:13.234Z,2.00
2018-08-19T16:26:16.499Z,1.83
2018-08-19T16:31:19.490Z,2.40
2018-08-19T16:36:22.592Z,1.73
2018-08-19T16:41:26.531Z,1.73
2018-08-19T16:46:29.525Z,1.90
2018-08-19T16:51:32.557Z,2.10
2018-08-19T16:56:35.667Z,1.83
2018-08-19T17:01:38.654Z,2.10
2018-08-19T17:06:41.638Z,1.93
2018-08-19T17:11:44.619Z,1.93
2018-08-19T17:16:47.618Z,2.10
2018-08-19T17:21:50.606Z,2.10
2018-08-19T17:27:12.981Z,1.70
2018-08-19T17:32:16.052Z,1.70
2018-08-19T17:37:19.093Z,2.00
2018-08-19T17:42:22.070Z,1.93
2018-08-19T17:47:25.224Z,1.90
2018-08-19T17:52:28.236Z,2.00
2018-08-19T17:57:31.223Z,2.30
2018-08-19T18:02:34.292Z,2.37
2018-08-19T18:07:37.253Z,2.10
2018-08-19T18:12:40.241Z,2.03
2018-08-19T18:17:57.293Z,2.37
2018-08-19T18:23:00.314Z,1.83
2018-08-19T18:28:10.518Z,2.47
2018-08-19T18:33:13.698Z,2.83
2018-08-19T18:38:23.392Z,2.67
2018-08-19T18:43:26.399Z,2.67
2018-08-19T18:48:29.503Z,2.30
2018-08-19T18:53:32.477Z,2.30
2018-08-19T18:58:35.444Z,2.10
2018-08-19T19:03:38.818Z,2.90
2018-08-19T19:08:41.849Z,2.43
2018-08-19T19:13:44.834Z,2.23
2018-08-19T19:18:47.809Z,2.67
2018-08-19T19:23:50.790Z,2.57
2018-08-19T19:28:54.146Z,2.60
2018-08-19T19:34:02.509Z,2.90
2018-08-19T19:39:05.634Z,2.70
2018-08-19T19:44:22.106Z,2.93
2018-08-19T19:49:25.223Z,2.97
2018-08-19T19:54:29.783Z,3.17
2018-08-19T19:59:34.070Z,2.67
2018-08-19T20:04:37.301Z,3.37
2018-08-19T20:09:40.549Z,3.10
2018-08-19T20:14:48.829Z,2.90
2018-08-19T20:19:51.861Z,3.83
2018-08-19T20:24:54.865Z,3.20
2018-08-19T20:29:57.850Z,3.20
2018-08-19T20:35:01.481Z,3.17
2018-08-19T20:40:05.188Z,3.50
2018-08-19T20:45:08.633Z,3.00
2018-08-19T20:50:12.064Z,3.50
2018-08-19T20:55:15.626Z,2.80
2018-08-19T21:00:19.023Z,3.10
2018-08-19T21:05:22.012Z,3.27
2018-08-19T21:10:25.665Z,3.23
2018-08-19T21:15:34.157Z,3.13
2018-08-19T21:20:37.130Z,3.20
2018-08-19T21:25:48.593Z,3.60
2018-08-19T21:30:51.597Z,3.67
2018-08-19T21:35:55.729Z,3.30
2018-08-19T21:40:58.766Z,3.53
2018-08-19T21:46:01.761Z,3.50
2018-08-19T21:51:04.721Z,3.73
2018-08-19T21:56:07.694Z,3.60
2018-08-19T22:01:15.993Z,3.50
2018-08-19T22:06:18.961Z,4.00
2018-08-19T22:11:21.938Z,3.90
2018-08-19T22:16:25.081Z,3.73
2018-08-19T22:21:28.105Z,3.93
2018-08-19T22:26:31.161Z,4.23
2018-08-19T22:31:34.137Z,4.17
2018-08-19T22:36:37.958Z,4.00
2018-08-19T22:41:40.930Z,4.77
2018-08-19T22:46:43.930Z,4.70
2018-08-19T22:51:46.908Z,5.60
2018-08-19T22:56:49.889Z,5.20
2018-08-19T23:01:52.928Z,5.10
2018-08-19T23:06:55.946Z,4.33
2018-08-19T23:11:59.029Z,4.90
2018-08-19T23:17:02.017Z,4.50
2018-08-19T23:22:05.000Z,4.23
2018-08-19T23:27:07.977Z,4.70
2018-08-19T23:32:10.957Z,4.97
2018-08-19T23:37:13.945Z,4.93
2018-08-19T23:42:16.932Z,5.07
2018-08-19T23:47:19.910Z,5.37
2018-08-19T23:52:22.910Z,4.97
2018-08-19T23:57:26.081Z,5.10
